Time;durP1;ratioP1;P1;durP2;ratioP2;P2;SDS_P1;SDS_P2;PMS_P1;PMS_P2;Temp;Humidity;BMP_temperature;BMP_pressure;BME280_temperature;BME280_humidity;BME280_pressure;Samples;Min_cycle;Max_cycle;Signal;HPM_P1;HPM_P2
2022/05/17 00:01:31;;;;;;;3.05;2.22;;;;;;;;;;5022997;28;20198;-76
2022/05/17 00:04:01;;;;;;;2.25;2.05;;;;;;;;;;5026203;28;20320;-76
2022/05/17 00:06:29;;;;;;;2.30;2.10;;;;;;;;;;5031548;28;20206;-75
2022/05/17 00:08:57;;;;;;;2.40;2.20;;;;;;;;;;5031214;28;20233;-76
2022/05/17 00:11:25;;;;;;;2.20;2.00;;;;;;;;;;5031389;28;20236;-75
2022/05/17 00:13:52;;;;;;;2.55;2.30;;;;;;;;;;5030608;28;20237;-75
2022/05/17 00:16:19;;;;;;;2.67;2.25;;;;;;;;;;5029011;28;20205;-76
2022/05/17 00:18:46;;;;;;;2.30;1.95;;;;;;;;;;5030220;28;20221;-76
2022/05/17 00:21:15;;;;;;;2.47;2.17;;;;;;;;;;5029022;28;20240;-76
2022/05/17 00:23:43;;;;;;;1.95;1.80;;;;;;;;;;5030470;28;20248;-76
2022/05/17 00:26:10;;;;;;;2.67;2.22;;;;;;;;;;5030399;28;20202;-76
2022/05/17 00:28:38;;;;;;;2.55;2.35;;;;;;;;;;5031470;28;20293;-76
2022/05/17 00:31:06;;;;;;;2.40;2.20;;;;;;;;;;5030821;28;20225;-76
2022/05/17 00:33:33;;;;;;;2.50;2.15;;;;;;;;;;5030903;28;20268;-76
2022/05/17 00:36:01;;;;;;;3.05;2.05;;;;;;;;;;5031165;28;20230;-76
2022/05/17 00:38:29;;;;;;;3.33;2.40;;;;;;;;;;5030318;28;20244;-76
2022/05/17 00:40:57;;;;;;;2.55;2.13;;;;;;;;;;5031159;28;20291;-76
2022/05/17 00:43:29;;;;;;;2.60;2.40;;;;;;;;;;5030907;28;20285;-76
2022/05/17 00:46:00;;;;;;;2.53;2.33;;;;;;;;;;5030626;28;20208;-76
2022/05/17 00:48:28;;;;;;;2.70;2.50;;;;;;;;;;5032175;28;20214;-76
2022/05/17 00:50:56;;;;;;;2.55;2.08;;;;;;;;;;5035311;28;20269;-76
2022/05/17 00:53:25;;;;;;;2.53;2.33;;;;;;;;;;5034685;28;20242;-76
2022/05/17 00:55:55;;;;;;;2.20;2.00;;;;;;;;;;5034680;28;20284;-76
2022/05/17 00:58:24;;;;;;;2.30;2.10;;;;;;;;;;5034570;28;20221;-76
2022/05/17 01:00:53;;;;;;;2.20;2.00;;;;;;;;;;5034923;28;20255;-76
2022/05/17 01:03:22;;;;;;;2.80;2.22;;;;;;;;;;5034588;28;20213;-76
2022/05/17 01:05:52;;;;;;;2.22;1.90;;;;;;;;;;5033930;28;20230;-76
2022/05/17 01:08:20;;;;;;;3.17;2.38;;;;;;;;;;5034536;28;20729;-76
2022/05/17 01:10:47;;;;;;;2.20;2.00;;;;;;;;;;5034579;28;20201;-76
2022/05/17 01:16:00;;;;;;;2.22;2.03;;;;;;;;;;5034797;28;20209;-76
2022/05/17 01:18:31;;;;;;;2.47;2.28;;;;;;;;;;5034732;28;20225;-76
2022/05/17 01:20:59;;;;;;;2.83;2.28;;;;;;;;;;5034420;28;20626;-76
2022/05/17 01:23:26;;;;;;;2.35;2.15;;;;;;;;;;5034229;28;20224;-76
2022/05/17 01:25:54;;;;;;;2.42;2.22;;;;;;;;;;5027818;28;20247;-76
2022/05/17 01:28:22;;;;;;;2.30;2.08;;;;;;;;;;5034349;28;20202;-76
2022/05/17 01:30:49;;;;;;;2.17;1.98;;;;;;;;;;5034098;28;20667;-76
2022/05/17 01:33:17;;;;;;;2.40;2.20;;;;;;;;;;5034574;28;20217;-76
2022/05/17 01:35:45;;;;;;;2.42;2.22;;;;;;;;;;5033991;28;20253;-76
2022/05/17 01:38:14;;;;;;;2.88;2.08;;;;;;;;;;5034086;28;20683;-76
2022/05/17 01:40:42;;;;;;;2.28;2.13;;;;;;;;;;5034156;28;20206;-76
2022/05/17 01:43:09;;;;;;;1.90;1.80;;;;;;;;;;5033836;28;20281;-76
2022/05/17 01:45:37;;;;;;;2.25;2.05;;;;;;;;;;5033338;28;20236;-76
2022/05/17 01:48:04;;;;;;;2.40;2.20;;;;;;;;;;5034350;28;20206;-76
2022/05/17 01:50:31;;;;;;;2.75;2.33;;;;;;;;;;5033426;28;20206;-76
2022/05/17 01:52:58;;;;;;;2.30;2.10;;;;;;;;;;5033978;28;20229;-76
2022/05/17 01:55:27;;;;;;;3.05;2.20;;;;;;;;;;5033399;28;20229;-76
2022/05/17 01:57:54;;;;;;;2.42;2.22;;;;;;;;;;5033266;28;20218;-76
2022/05/17 02:00:24;;;;;;;2.03;1.90;;;;;;;;;;5032877;28;20206;-76
2022/05/17 02:02:51;;;;;;;2.53;2.20;;;;;;;;;;5033365;28;20632;-76
2022/05/17 02:05:19;;;;;;;2.20;2.00;;;;;;;;;;5032825;28;20341;-76
2022/05/17 02:07:48;;;;;;;3.28;2.10;;;;;;;;;;5033957;28;20213;-76
2022/05/17 02:10:15;;;;;;;2.10;2.00;;;;;;;;;;5033679;28;20285;-76
2022/05/17 02:12:44;;;;;;;2.38;2.22;;;;;;;;;;5033642;28;20260;-76
2022/05/17 02:15:12;;;;;;;3.10;2.28;;;;;;;;;;5032534;28;20252;-76
2022/05/17 02:17:42;;;;;;;2.17;2.08;;;;;;;;;;5033673;28;20221;-76
2022/05/17 02:20:10;;;;;;;2.47;2.28;;;;;;;;;;5033293;28;20293;-76
2022/05/17 02:22:38;;;;;;;2.58;2.38;;;;;;;;;;5033588;28;20218;-75
2022/05/17 02:25:05;;;;;;;2.97;2.10;;;;;;;;;;5032929;28;20276;-76
2022/05/17 02:27:33;;;;;;;2.85;2.63;;;;;;;;;;5033437;28;20229;-76
2022/05/17 02:30:01;;;;;;;2.50;2.30;;;;;;;;;;5033360;28;20202;-75
2022/05/17 02:32:28;;;;;;;2.63;2.20;;;;;;;;;;5032973;28;20205;-76
2022/05/17 02:34:56;;;;;;;2.13;1.90;;;;;;;;;;5032261;28;20268;-76
2022/05/17 02:37:23;;;;;;;2.70;2.50;;;;;;;;;;5033399;28;20214;-76
2022/05/17 02:39:50;;;;;;;2.50;2.30;;;;;;;;;;5033085;28;20205;-76
2022/05/17 02:42:17;;;;;;;2.22;2.03;;;;;;;;;;5033110;28;20264;-75
2022/05/17 02:44:45;;;;;;;2.55;2.35;;;;;;;;;;5032101;28;20321;-76
2022/05/17 02:47:13;;;;;;;3.17;2.05;;;;;;;;;;5032445;28;20198;-76
2022/05/17 02:49:43;;;;;;;2.42;2.22;;;;;;;;;;5033169;28;20291;-76
2022/05/17 02:52:10;;;;;;;2.95;2.65;;;;;;;;;;5032938;28;20202;-76
2022/05/17 02:54:39;;;;;;;2.10;2.00;;;;;;;;;;5032505;28;20249;-76
2022/05/17 02:57:07;;;;;;;3.15;2.20;;;;;;;;;;5032978;28;20209;-76
2022/05/17 02:59:34;;;;;;;2.40;2.20;;;;;;;;;;5032052;28;20249;-76
2022/05/17 03:02:02;;;;;;;3.17;2.03;;;;;;;;;;5032853;28;20283;-76
2022/05/17 03:04:31;;;;;;;2.45;2.15;;;;;;;;;;5031792;28;20280;-76
2022/05/17 03:06:58;;;;;;;2.20;2.00;;;;;;;;;;5032860;28;20241;-76
2022/05/17 03:09:25;;;;;;;2.45;2.20;;;;;;;;;;5032259;28;20252;-76
2022/05/17 03:11:52;;;;;;;2.33;2.00;;;;;;;;;;5031523;28;20656;-76
2022/05/17 03:14:21;;;;;;;2.40;2.20;;;;;;;;;;5031594;28;20257;-76
2022/05/17 03:16:49;;;;;;;2.08;1.88;;;;;;;;;;5032086;28;20198;-76
2022/05/17 03:19:18;;;;;;;2.28;2.08;;;;;;;;;;5031864;28;20753;-76
2022/05/17 03:21:48;;;;;;;2.60;2.40;;;;;;;;;;5032759;28;20213;-76
2022/05/17 03:24:16;;;;;;;2.78;2.17;;;;;;;;;;5031507;28;20221;-76
2022/05/17 03:26:43;;;;;;;2.50;2.30;;;;;;;;;;5032205;28;20275;-76
2022/05/17 03:29:10;;;;;;;2.25;2.05;;;;;;;;;;5032242;28;20297;-76
2022/05/17 03:31:38;;;;;;;2.35;2.15;;;;;;;;;;5031827;28;20202;-75
2022/05/17 03:34:05;;;;;;;2.45;2.15;;;;;;;;;;5036640;28;20217;-76
2022/05/17 03:36:32;;;;;;;2.38;2.17;;;;;;;;;;5031398;28;20201;-76
2022/05/17 03:39:01;;;;;;;2.38;2.15;;;;;;;;;;5032044;28;20298;-79
2022/05/17 03:41:28;;;;;;;2.38;2.10;;;;;;;;;;5031656;28;20232;-80
2022/05/17 03:43:55;;;;;;;2.75;2.10;;;;;;;;;;5034969;28;20275;-77
2022/05/17 03:46:23;;;;;;;2.22;2.00;;;;;;;;;;5030034;28;20264;-76
2022/05/17 03:48:50;;;;;;;2.38;2.10;;;;;;;;;;5031452;28;20221;-76
2022/05/17 03:51:18;;;;;;;3.10;2.00;;;;;;;;;;5034435;28;20233;-76
2022/05/17 03:53:46;;;;;;;2.13;1.92;;;;;;;;;;5028987;28;20205;-76
2022/05/17 03:56:16;;;;;;;2.10;1.90;;;;;;;;;;5030226;28;20346;-76
2022/05/17 03:58:45;;;;;;;3.38;2.10;;;;;;;;;;5034637;28;20217;-79
2022/05/17 04:01:13;;;;;;;3.92;2.10;;;;;;;;;;5035468;28;20248;-82
2022/05/17 04:03:41;;;;;;;2.17;1.80;;;;;;;;;;5035166;28;20225;-81
2022/05/17 04:06:08;;;;;;;2.67;2.10;;;;;;;;;;5036135;28;20202;-80
2022/05/17 04:08:36;;;;;;;11.70;5.10;;;;;;;;;;5035356;28;20216;-82
2022/05/17 04:11:04;;;;;;;33.13;6.90;;;;;;;;;;5037924;28;20204;-80
2022/05/17 04:13:32;;;;;;;28.08;7.28;;;;;;;;;;5038774;28;20205;-82
2022/05/17 04:16:00;;;;;;;23.50;5.65;;;;;;;;;;5034799;28;20202;-80
2022/05/17 04:18:28;;;;;;;24.48;6.47;;;;;;;;;;5034279;28;20214;-79
2022/05/17 04:20:58;;;;;;;8.90;3.17;;;;;;;;;;5034728;28;20204;-79
2022/05/17 04:23:26;;;;;;;7.65;3.20;;;;;;;;;;5031294;28;20225;-80
2022/05/17 04:25:53;;;;;;;11.80;3.75;;;;;;;;;;5031499;28;20276;-79
2022/05/17 04:28:20;;;;;;;11.55;3.80;;;;;;;;;;5031515;28;20272;-79
2022/05/17 04:30:49;;;;;;;9.80;3.70;;;;;;;;;;5031913;28;20248;-78
2022/05/17 04:42:57;;;;;;;8.93;3.90;;;;;;;;;;5057961;28;20179;-84
2022/05/17 04:45:25;;;;;;;8.10;3.83;;;;;;;;;;5051614;28;20232;-84
2022/05/17 04:47:56;;;;;;;6.80;3.33;;;;;;;;;;5056466;28;20201;-84
2022/05/17 04:50:23;;;;;;;7.85;4.05;;;;;;;;;;5060742;28;20254;-84
2022/05/17 04:52:51;;;;;;;7.47;3.60;;;;;;;;;;5060329;28;20204;-84
2022/05/17 04:55:19;;;;;;;6.38;3.58;;;;;;;;;;5066077;28;20237;-83
2022/05/17 04:57:47;;;;;;;9.65;3.65;;;;;;;;;;5061020;28;20219;-84
2022/05/17 05:00:22;;;;;;;5.60;3.35;;;;;;;;;;5058659;28;20255;-84
2022/05/17 05:02:50;;;;;;;6.60;3.30;;;;;;;;;;5058251;28;20288;-84
2022/05/17 05:05:20;;;;;;;8.02;3.83;;;;;;;;;;5057212;28;20227;-84
2022/05/17 05:07:47;;;;;;;5.72;2.95;;;;;;;;;;5063432;28;20232;-84
2022/05/17 05:10:15;;;;;;;6.97;3.30;;;;;;;;;;5050245;28;20293;-84
2022/05/17 05:12:49;;;;;;;6.70;3.35;;;;;;;;;;5041815;28;20212;-84
2022/05/17 05:15:33;;;;;;;5.35;3.42;;;;;;;;;;5048381;28;20221;-84
2022/05/17 05:18:00;;;;;;;9.23;3.28;;;;;;;;;;5049301;28;20226;-80
2022/05/17 05:20:31;;;;;;;5.47;3.25;;;;;;;;;;5041797;28;20202;-85
2022/05/17 05:22:58;;;;;;;6.70;3.45;;;;;;;;;;5049347;28;20264;-81
2022/05/17 05:25:33;;;;;;;5.40;3.20;;;;;;;;;;5053001;28;20218;-80
2022/05/17 05:28:06;;;;;;;4.40;2.92;;;;;;;;;;5053907;28;20220;-81
2022/05/17 05:30:34;;;;;;;3.65;2.90;;;;;;;;;;5047579;28;20654;-80
2022/05/17 05:33:01;;;;;;;4.60;3.08;;;;;;;;;;5054843;28;20197;-81
2022/05/17 05:35:32;;;;;;;4.40;2.90;;;;;;;;;;5052371;28;20225;-81
2022/05/17 05:37:59;;;;;;;5.22;3.03;;;;;;;;;;5049984;28;20233;-81
2022/05/17 05:40:27;;;;;;;4.85;3.30;;;;;;;;;;5052400;28;20221;-81
2022/05/17 05:42:56;;;;;;;5.47;3.20;;;;;;;;;;5059320;28;20205;-85
2022/05/17 05:45:23;;;;;;;6.20;3.00;;;;;;;;;;5058793;28;20225;-81
2022/05/17 05:47:50;;;;;;;5.90;3.08;;;;;;;;;;5058606;28;20209;-81
2022/05/17 05:50:18;;;;;;;7.43;3.33;;;;;;;;;;5057177;28;20209;-81
2022/05/17 05:52:59;;;;;;;5.72;2.67;;;;;;;;;;5056202;28;20254;-81
2022/05/17 05:55:26;;;;;;;4.72;3.03;;;;;;;;;;5052096;28;20213;-80
2022/05/17 05:58:00;;;;;;;3.75;3.10;;;;;;;;;;5050610;28;20236;-81
2022/05/17 06:00:28;;;;;;;8.38;3.05;;;;;;;;;;5059680;28;20228;-81
2022/05/17 06:02:55;;;;;;;5.15;2.85;;;;;;;;;;5058487;28;20205;-81
2022/05/17 06:05:23;;;;;;;4.53;3.22;;;;;;;;;;5057252;28;20240;-81
2022/05/17 06:07:52;;;;;;;6.10;3.22;;;;;;;;;;5058543;28;20212;-82
2022/05/17 06:10:22;;;;;;;6.68;3.30;;;;;;;;;;5058965;28;20194;-81
2022/05/17 06:13:02;;;;;;;5.68;2.92;;;;;;;;;;5057047;28;20200;-81
2022/05/17 06:15:29;;;;;;;6.25;2.97;;;;;;;;;;5053502;28;20221;-81
2022/05/17 06:18:02;;;;;;;5.13;3.10;;;;;;;;;;5057473;28;20209;-81
2022/05/17 06:20:29;;;;;;;7.20;3.00;;;;;;;;;;5058986;28;20233;-82
2022/05/17 06:23:03;;;;;;;7.28;3.15;;;;;;;;;;5057605;28;20209;-82
2022/05/17 06:25:34;;;;;;;4.70;3.15;;;;;;;;;;5057158;28;20229;-81
2022/05/17 06:28:09;;;;;;;4.35;2.83;;;;;;;;;;5058601;28;20209;-81
2022/05/17 06:30:37;;;;;;;5.60;3.10;;;;;;;;;;5057973;28;20228;-82
2022/05/17 06:33:05;;;;;;;3.55;2.65;;;;;;;;;;5065987;28;20206;-81
2022/05/17 06:35:33;;;;;;;4.95;2.90;;;;;;;;;;5067073;28;20307;-81
2022/05/17 06:38:02;;;;;;;4.85;3.20;;;;;;;;;;5066301;28;20217;-80
2022/05/17 06:40:37;;;;;;;3.72;2.80;;;;;;;;;;5061997;28;20225;-81
2022/05/17 06:43:08;;;;;;;4.72;3.20;;;;;;;;;;5062643;28;20593;-82
2022/05/17 06:45:43;;;;;;;3.20;2.80;;;;;;;;;;5058189;28;20332;-80
2022/05/17 06:48:16;;;;;;;4.25;3.00;;;;;;;;;;5058141;28;20236;-80
2022/05/17 06:51:04;;;;;;;4.28;3.15;;;;;;;;;;5058791;28;20223;-81
2022/05/17 06:53:42;;;;;;;6.13;3.00;;;;;;;;;;5057067;28;20296;-83
2022/05/17 06:56:11;;;;;;;3.35;2.67;;;;;;;;;;5057330;28;20247;-82
2022/05/17 06:58:41;;;;;;;3.92;2.85;;;;;;;;;;5056995;28;20213;-80
2022/05/17 07:01:09;;;;;;;4.03;2.90;;;;;;;;;;5058734;28;20215;-81
2022/05/17 07:03:39;;;;;;;5.20;3.20;;;;;;;;;;5059482;28;20235;-81
2022/05/17 07:06:07;;;;;;;3.92;2.50;;;;;;;;;;5059573;28;20205;-80
2022/05/17 07:08:36;;;;;;;3.97;3.13;;;;;;;;;;5057811;28;20216;-86
2022/05/17 07:13:52;;;;;;;4.10;2.90;;;;;;;;;;5061628;28;20204;-80
2022/05/17 07:16:30;;;;;;;4.30;2.88;;;;;;;;;;5063150;28;20272;-81
2022/05/17 07:18:57;;;;;;;2.83;2.40;;;;;;;;;;5058923;28;20255;-82
2022/05/17 07:21:30;;;;;;;2.90;2.55;;;;;;;;;;5062861;28;20219;-83
2022/05/17 07:24:02;;;;;;;3.63;2.47;;;;;;;;;;5062175;28;20287;-80
2022/05/17 07:26:31;;;;;;;3.40;2.78;;;;;;;;;;5063388;28;20216;-81
2022/05/17 07:29:04;;;;;;;3.85;2.80;;;;;;;;;;5064258;28;20216;-82
2022/05/17 07:31:42;;;;;;;;;;;;;;;;;;;;;
2022/05/17 07:34:16;;;;;;;3.47;2.67;;;;;;;;;;5062189;28;20220;-81
2022/05/17 07:36:54;;;;;;;4.03;2.75;;;;;;;;;;5061459;28;20304;-81
2022/05/17 07:39:25;;;;;;;4.32;2.70;;;;;;;;;;5059716;28;20312;-80
2022/05/17 07:44:38;;;;;;;4.63;2.60;;;;;;;;;;5039326;28;20228;-80
2022/05/17 07:47:21;;;;;;;;;;;;;;;;;;;;;
2022/05/17 07:49:57;;;;;;;5.97;2.80;;;;;;;;;;5051730;28;20208;-88
2022/05/17 07:52:31;;;;;;;3.03;2.78;;;;;;;;;;5058960;28;20219;-78
2022/05/17 07:55:09;;;;;;;3.83;2.53;;;;;;;;;;5055875;28;20259;-79
2022/05/17 07:57:49;;;;;;;3.05;2.75;;;;;;;;;;5055177;28;20209;-81
2022/05/17 08:03:34;;;;;;;2.90;2.60;;;;;;;;;;5028885;28;20213;-81
2022/05/17 08:09:09;;;;;;;3.72;2.85;;;;;;;;;;5004774;28;20210;-82
2022/05/17 08:11:53;;;;;;;4.63;2.38;;;;;;;;;;5058237;28;20208;-81
2022/05/17 08:14:47;;;;;;;;;;;;;;;;;;;;;
2022/05/17 08:17:27;;;;;;;4.63;2.65;;;;;;;;;;5057346;28;20216;-81
2022/05/17 08:20:09;;;;;;;2.67;2.45;;;;;;;;;;5054543;28;20212;-81
2022/05/17 08:23:04;;;;;;;4.25;2.58;;;;;;;;;;5053015;28;20201;-81
2022/05/17 08:31:30;;;;;;;2.90;2.40;;;;;;;;;;5038751;28;20213;-80
2022/05/17 08:34:20;;;;;;;2.88;2.67;;;;;;;;;;5048997;28;20221;-81
2022/05/17 08:36:52;;;;;;;2.63;2.42;;;;;;;;;;5051121;28;20611;-80
2022/05/17 08:39:26;;;;;;;3.85;2.55;;;;;;;;;;5056065;28;20217;-80
2022/05/17 08:42:02;;;;;;;2.60;2.40;;;;;;;;;;5056432;28;20205;-81
2022/05/17 08:44:53;;;;;;;3.60;2.72;;;;;;;;;;5055525;28;20221;-80
2022/05/17 08:47:33;;;;;;;3.97;2.85;;;;;;;;;;5053348;28;20299;-80
2022/05/17 08:50:04;;;;;;;3.33;2.58;;;;;;;;;;5051971;28;20288;-81
2022/05/17 08:52:32;;;;;;;2.63;2.42;;;;;;;;;;5055866;28;20197;-81
2022/05/17 08:55:12;;;;;;;3.15;2.20;;;;;;;;;;5053934;28;20217;-81
2022/05/17 08:57:48;;;;;;;3.20;2.60;;;;;;;;;;5054783;28;20658;-81
2022/05/17 09:00:34;;;;;;;2.60;2.35;;;;;;;;;;5055969;28;20751;-80
2022/05/17 09:03:07;;;;;;;3.13;2.33;;;;;;;;;;5056535;28;20200;-80
2022/05/17 09:05:37;;;;;;;2.88;2.50;;;;;;;;;;5054493;28;20221;-81
2022/05/17 09:08:15;;;;;;;3.03;2.72;;;;;;;;;;5055597;28;20209;-81
2022/05/17 09:10:49;;;;;;;2.80;2.60;;;;;;;;;;5058948;28;20201;-81
2022/05/17 09:13:24;;;;;;;2.75;2.40;;;;;;;;;;5059165;28;20669;-81
2022/05/17 09:15:56;;;;;;;2.83;2.53;;;;;;;;;;5057500;28;20224;-80
2022/05/17 09:18:24;;;;;;;3.63;2.50;;;;;;;;;;5058767;28;20232;-81
2022/05/17 09:20:59;;;;;;;3.00;2.50;;;;;;;;;;5058240;28;20244;-81
2022/05/17 09:23:42;;;;;;;2.72;2.30;;;;;;;;;;5058318;28;20296;-81
2022/05/17 09:26:12;;;;;;;3.83;2.75;;;;;;;;;;5054598;28;20209;-80
2022/05/17 09:29:07;;;;;;;2.50;2.30;;;;;;;;;;5057972;28;20392;-80
2022/05/17 09:31:38;;;;;;;2.40;2.20;;;;;;;;;;5032513;28;20211;-78
2022/05/17 09:34:17;;;;;;;3.22;2.45;;;;;;;;;;5054884;28;20232;-80
2022/05/17 09:37:01;;;;;;;2.70;2.50;;;;;;;;;;5055648;28;20213;-80
2022/05/17 09:39:34;;;;;;;2.40;2.20;;;;;;;;;;5055511;28;20205;-80
2022/05/17 09:42:05;;;;;;;2.63;2.40;;;;;;;;;;5056487;28;20255;-81
2022/05/17 09:44:41;;;;;;;2.50;2.30;;;;;;;;;;5052177;28;20225;-80
2022/05/17 09:47:16;;;;;;;2.85;2.40;;;;;;;;;;5055018;28;20255;-80
2022/05/17 09:52:38;;;;;;;2.65;2.38;;;;;;;;;;5048128;28;20208;-83
2022/05/17 09:55:24;;;;;;;4.18;2.40;;;;;;;;;;5055848;28;20228;-78
2022/05/17 09:57:59;;;;;;;4.05;2.38;;;;;;;;;;5056944;28;20201;-79
2022/05/17 10:00:32;;;;;;;3.78;2.50;;;;;;;;;;5058365;28;20221;-82
2022/05/17 10:03:01;;;;;;;4.10;2.50;;;;;;;;;;5055024;28;20211;-79
2022/05/17 10:05:31;;;;;;;2.80;2.60;;;;;;;;;;5048755;28;20224;-80
2022/05/17 10:08:02;;;;;;;4.25;2.80;;;;;;;;;;5052732;28;20263;-80
2022/05/17 10:10:35;;;;;;;3.13;2.83;;;;;;;;;;5056617;28;20671;-80
2022/05/17 10:13:08;;;;;;;2.80;2.55;;;;;;;;;;5054399;28;20210;-83
2022/05/17 10:15:37;;;;;;;4.57;2.67;;;;;;;;;;5054268;28;20294;-79
2022/05/17 10:18:12;;;;;;;3.67;2.78;;;;;;;;;;5055695;28;20213;-80
2022/05/17 10:20:47;;;;;;;2.90;2.60;;;;;;;;;;5052560;28;20228;-85
2022/05/17 10:23:24;;;;;;;3.75;2.63;;;;;;;;;;5056706;28;20291;-80
2022/05/17 10:25:55;;;;;;;4.00;2.45;;;;;;;;;;5055589;28;20232;-80
2022/05/17 10:28:28;;;;;;;3.90;2.60;;;;;;;;;;5058443;28;20216;-83
2022/05/17 10:30:58;;;;;;;2.97;2.47;;;;;;;;;;5057067;28;20205;-82
2022/05/17 10:33:35;;;;;;;2.90;2.70;;;;;;;;;;5055732;28;20212;-83
2022/05/17 10:36:04;;;;;;;4.15;3.67;;;;;;;;;;5055929;28;20208;-86
2022/05/17 10:38:40;;;;;;;9.20;5.50;;;;;;;;;;5052143;28;20205;-81
2022/05/17 10:41:14;;;;;;;9.70;6.22;;;;;;;;;;5052981;28;20225;-82
2022/05/17 10:43:44;;;;;;;7.57;5.57;;;;;;;;;;5055222;28;20220;-82
2022/05/17 10:46:14;;;;;;;8.05;5.82;;;;;;;;;;5056631;28;20213;-81
2022/05/17 10:48:47;;;;;;;8.00;5.93;;;;;;;;;;5057986;28;20220;-83
2022/05/17 10:51:29;;;;;;;7.13;5.72;;;;;;;;;;5054679;28;20277;-84
2022/05/17 10:54:10;;;;;;;7.28;5.38;;;;;;;;;;5054947;28;20223;-79
2022/05/17 10:59:39;;;;;;;5.80;4.68;;;;;;;;;;5052775;28;20223;-80
2022/05/17 11:05:26;;;;;;;;;;;;;;;;;;;;;
2022/05/17 11:14:57;;;;;;;5.60;3.88;;;;;;;;;;5039543;28;20225;-81
2022/05/17 11:20:56;;;;;;;4.28;3.88;;;;;;;;;;5013263;28;20223;-90
2022/05/17 11:23:39;;;;;;;4.95;4.18;;;;;;;;;;4971984;28;20222;-84
2022/05/17 11:26:39;;;;;;;4.80;4.03;;;;;;;;;;5005043;28;20203;-82
2022/05/17 11:42:07;;;;;;;3.58;3.20;;;;;;;;;;4950447;28;20227;-82
2022/05/17 11:45:03;;;;;;;3.63;3.33;;;;;;;;;;5056200;28;20308;-82
2022/05/17 12:03:31;;;;;;;4.55;2.88;;;;;;;;;;4867500;29;20200;-82
2022/05/17 12:09:16;;;;;;;3.15;2.80;;;;;;;;;;5035416;28;20204;-82
2022/05/17 12:12:08;;;;;;;3.88;2.90;;;;;;;;;;5050504;28;20212;-82
2022/05/17 12:14:38;;;;;;;4.10;3.30;;;;;;;;;;5055278;28;20694;-81
2022/05/17 12:17:09;;;;;;;3.40;3.10;;;;;;;;;;5050596;28;20213;-81
2022/05/17 12:19:45;;;;;;;3.92;2.78;;;;;;;;;;5051110;28;20229;-83
2022/05/17 12:22:18;;;;;;;3.33;2.90;;;;;;;;;;5045869;28;20224;-82
2022/05/17 12:24:59;;;;;;;3.65;2.95;;;;;;;;;;5048796;28;20217;-82
2022/05/17 12:27:28;;;;;;;4.00;2.90;;;;;;;;;;5046756;28;20267;-81
2022/05/17 12:32:46;;;;;;;3.95;2.97;;;;;;;;;;5053068;28;20200;-79
2022/05/17 12:35:23;;;;;;;3.10;2.80;;;;;;;;;;5053977;28;20249;-82
2022/05/17 12:37:56;;;;;;;3.22;2.95;;;;;;;;;;5054447;28;20278;-81
2022/05/17 12:43:11;;;;;;;3.50;3.00;;;;;;;;;;5055004;28;20227;-82
2022/05/17 12:45:40;;;;;;;3.20;2.90;;;;;;;;;;5054205;28;20224;-82
2022/05/17 12:48:19;;;;;;;2.88;2.67;;;;;;;;;;5055086;28;20274;-82
2022/05/17 12:50:47;;;;;;;3.03;2.78;;;;;;;;;;5036482;28;20240;-82
2022/05/17 12:53:22;;;;;;;2.95;2.65;;;;;;;;;;5053733;28;20197;-82
2022/05/17 12:55:58;;;;;;;3.13;2.85;;;;;;;;;;5042682;28;20227;-80
2022/05/17 12:58:26;;;;;;;3.45;2.95;;;;;;;;;;5044581;28;20205;-81
2022/05/17 13:00:54;;;;;;;3.03;2.72;;;;;;;;;;5043011;28;20221;-80
2022/05/17 13:03:23;;;;;;;3.10;2.80;;;;;;;;;;5053056;28;20308;-80
2022/05/17 13:05:53;;;;;;;2.70;2.47;;;;;;;;;;5052074;28;20232;-81
2022/05/17 13:08:23;;;;;;;3.22;2.60;;;;;;;;;;5052728;28;20204;-81
2022/05/17 13:10:59;;;;;;;3.08;2.53;;;;;;;;;;5053855;28;20240;-81
2022/05/17 13:13:27;;;;;;;2.80;2.60;;;;;;;;;;5052263;28;20200;-82
2022/05/17 13:15:58;;;;;;;2.97;2.72;;;;;;;;;;5052228;28;20209;-81
2022/05/17 13:18:26;;;;;;;3.05;2.75;;;;;;;;;;5052714;28;20201;-81
2022/05/17 13:20:54;;;;;;;3.13;2.55;;;;;;;;;;5053831;28;20259;-80
2022/05/17 13:23:25;;;;;;;3.13;2.80;;;;;;;;;;5054011;28;20205;-81
2022/05/17 13:25:56;;;;;;;2.55;2.20;;;;;;;;;;5052169;28;20225;-81
2022/05/17 13:28:31;;;;;;;2.75;2.55;;;;;;;;;;5052306;28;20243;-80
2022/05/17 13:31:03;;;;;;;3.03;2.72;;;;;;;;;;5033038;28;20219;-80
2022/05/17 13:36:40;;;;;;;3.45;2.50;;;;;;;;;;5031166;28;20224;-81
2022/05/17 13:39:26;;;;;;;2.63;2.42;;;;;;;;;;5047417;28;20197;-82
2022/05/17 13:41:57;;;;;;;2.90;2.70;;;;;;;;;;5045551;28;20209;-80
2022/05/17 13:44:28;;;;;;;2.80;2.60;;;;;;;;;;5047694;28;20313;-80
2022/05/17 13:50:16;;;;;;;2.90;2.38;;;;;;;;;;5052006;28;20204;-83
2022/05/17 13:52:48;;;;;;;3.47;2.50;;;;;;;;;;5061323;28;20185;-82
2022/05/17 13:55:27;;;;;;;2.55;2.35;;;;;;;;;;5044377;28;20221;-83
2022/05/17 13:58:02;;;;;;;3.50;2.50;;;;;;;;;;5052379;28;20259;-83
2022/05/17 14:03:54;;;;;;;4.70;2.60;;;;;;;;;;4991866;28;20206;-80
2022/05/17 14:22:29;;;;;;;3.33;2.30;;;;;;;;;;4856182;29;20270;-82
2022/05/17 14:41:13;;;;;;;;;;;;;;;;;;;;;
2022/05/17 14:53:18;;;;;;;;;;;;;;;;;;;;;
2022/05/17 14:56:11;;;;;;;3.95;2.40;;;;;;;;;;4823258;29;20229;-81
2022/05/17 14:59:13;;;;;;;4.43;2.33;;;;;;;;;;4818571;29;20353;-81
2022/05/17 15:01:58;;;;;;;4.43;2.38;;;;;;;;;;4788157;29;20237;-81
2022/05/17 15:04:32;;;;;;;6.25;2.60;;;;;;;;;;4803516;29;20229;-81
2022/05/17 15:07:12;;;;;;;4.32;2.25;;;;;;;;;;5009416;22;20225;-85
2022/05/17 15:09:41;;;;;;;3.83;1.85;;;;;;;;;;5062189;28;20212;-86
2022/05/17 15:12:10;;;;;;;4.28;2.17;;;;;;;;;;5053452;28;20280;-85
2022/05/17 15:14:45;;;;;;;5.35;2.17;;;;;;;;;;5056469;28;20201;-85
2022/05/17 15:17:45;;;;;;;2.78;2.10;;;;;;;;;;5056367;28;20664;-85
2022/05/17 15:23:00;;;;;;;3.50;2.30;;;;;;;;;;5049393;28;20254;-85
2022/05/17 15:25:27;;;;;;;4.05;2.08;;;;;;;;;;5056005;28;20208;-84
2022/05/17 15:27:56;;;;;;;3.50;2.15;;;;;;;;;;5053812;28;20233;-84
2022/05/17 15:30:24;;;;;;;2.95;2.00;;;;;;;;;;5053079;28;20205;-83
2022/05/17 15:32:55;;;;;;;3.50;2.08;;;;;;;;;;5052080;28;20328;-83
2022/05/17 15:35:30;;;;;;;4.32;2.20;;;;;;;;;;5053213;28;20628;-82
2022/05/17 15:37:58;;;;;;;5.00;2.10;;;;;;;;;;5053734;28;20228;-84
2022/05/17 15:40:26;;;;;;;3.78;2.00;;;;;;;;;;5055975;28;20229;-84
2022/05/17 15:42:54;;;;;;;6.68;2.05;;;;;;;;;;5060379;28;20304;-83
2022/05/17 15:45:22;;;;;;;6.00;2.30;;;;;;;;;;5059037;28;20205;-87
2022/05/17 15:53:36;;;;;;;6.93;2.10;;;;;;;;;;5063472;28;20204;-83
2022/05/17 15:56:12;;;;;;;5.30;2.35;;;;;;;;;;5056748;28;20201;-83
2022/05/17 15:58:40;;;;;;;4.57;2.10;;;;;;;;;;5055114;28;20208;-85
2022/05/17 16:01:11;;;;;;;4.10;1.90;;;;;;;;;;5059326;28;20233;-83
2022/05/17 16:03:44;;;;;;;4.63;2.17;;;;;;;;;;5061936;28;20205;-83
2022/05/17 16:06:16;;;;;;;6.50;2.20;;;;;;;;;;5062213;28;20200;-83
2022/05/17 16:08:47;;;;;;;7.43;2.33;;;;;;;;;;5060714;28;20273;-83
2022/05/17 16:14:09;;;;;;;4.07;2.10;;;;;;;;;;5064412;28;20304;-83
2022/05/17 16:16:38;;;;;;;3.47;2.20;;;;;;;;;;5063445;28;20224;-83
2022/05/17 16:19:05;;;;;;;4.85;2.10;;;;;;;;;;5053982;28;20205;-85
2022/05/17 16:21:52;;;;;;;6.18;2.00;;;;;;;;;;5062945;28;20221;-85
2022/05/17 16:24:22;;;;;;;5.97;2.20;;;;;;;;;;5061425;28;20231;-84
2022/05/17 16:26:53;;;;;;;4.78;2.15;;;;;;;;;;5063459;28;20264;-84
2022/05/17 16:29:21;;;;;;;3.97;1.98;;;;;;;;;;5064095;28;20205;-84
2022/05/17 16:31:48;;;;;;;4.00;2.15;;;;;;;;;;5065633;28;20205;-84
2022/05/17 16:34:17;;;;;;;4.18;2.05;;;;;;;;;;5066116;28;20276;-84
2022/05/17 16:36:45;;;;;;;5.20;2.20;;;;;;;;;;5064829;28;20321;-84
2022/05/17 16:39:13;;;;;;;4.28;1.90;;;;;;;;;;5067323;28;20297;-84
2022/05/17 16:41:47;;;;;;;3.10;1.90;;;;;;;;;;5067295;28;20284;-84
2022/05/17 16:44:15;;;;;;;6.97;2.00;;;;;;;;;;5065920;28;20204;-84
2022/05/17 16:46:42;;;;;;;2.90;2.00;;;;;;;;;;5067328;28;20236;-84
2022/05/17 16:49:13;;;;;;;2.45;2.00;;;;;;;;;;5067220;28;20213;-84
2022/05/17 16:51:41;;;;;;;2.63;1.88;;;;;;;;;;5066229;28;20231;-84
2022/05/17 16:54:09;;;;;;;3.05;1.90;;;;;;;;;;5065088;28;20268;-84
2022/05/17 16:56:36;;;;;;;4.18;1.90;;;;;;;;;;5067288;28;20221;-84
2022/05/17 16:59:07;;;;;;;4.93;2.30;;;;;;;;;;5067675;28;20268;-84
2022/05/17 17:01:37;;;;;;;2.53;1.88;;;;;;;;;;5066930;28;20208;-84
2022/05/17 17:04:08;;;;;;;3.85;2.20;;;;;;;;;;5065905;28;20209;-84
2022/05/17 17:06:36;;;;;;;2.80;1.80;;;;;;;;;;5066609;28;20233;-84
2022/05/17 17:09:06;;;;;;;3.05;1.90;;;;;;;;;;5067863;28;20268;-84
2022/05/17 17:11:44;;;;;;;2.75;1.92;;;;;;;;;;5066708;28;20240;-84
2022/05/17 17:14:15;;;;;;;2.45;1.85;;;;;;;;;;5064693;28;20203;-85
2022/05/17 17:16:42;;;;;;;3.28;2.03;;;;;;;;;;5060686;28;20216;-88
2022/05/17 17:19:12;;;;;;;2.22;1.70;;;;;;;;;;5063265;28;20223;-84
2022/05/17 17:21:46;;;;;;;3.22;1.80;;;;;;;;;;5064870;28;20272;-84
2022/05/17 17:24:13;;;;;;;2.50;1.90;;;;;;;;;;5061178;28;20209;-84
2022/05/17 17:26:42;;;;;;;4.38;1.95;;;;;;;;;;5065101;28;20225;-84
2022/05/17 17:29:10;;;;;;;3.25;1.73;;;;;;;;;;5066992;28;20205;-84
2022/05/17 17:31:39;;;;;;;5.30;1.90;;;;;;;;;;5068090;28;20197;-84
2022/05/17 17:39:40;;;;;;;4.07;2.50;;;;;;;;;;5065071;28;20218;-83
2022/05/17 17:42:09;;;;;;;6.82;3.60;;;;;;;;;;5066081;28;20220;-83
2022/05/17 17:44:37;;;;;;;6.70;4.78;;;;;;;;;;5062066;28;20216;-86
2022/05/17 17:47:08;;;;;;;9.07;6.68;;;;;;;;;;5066568;28;20232;-85
2022/05/17 17:49:36;;;;;;;21.98;19.65;;;;;;;;;;5069245;28;20201;-84